sensor_id;sensor_type;location;lat;lon;timestamp;P1;durP1;ratioP1;P2;durP2;ratioP2
8596;SDS011;4336;49.310;8.646;2022-08-19T00:01:42;11.90;;;9.30;;
8596;SDS011;4336;49.310;8.646;2022-08-19T00:04:10;12.03;;;9.73;;
8596;SDS011;4336;49.310;8.646;2022-08-19T00:06:37;16.33;;;10.33;;
8596;SDS011;4336;49.310;8.646;2022-08-19T00:09:05;12.63;;;10.00;;
8596;SDS011;4336;49.310;8.646;2022-08-19T00:11:33;20.77;;;10.97;;
8596;SDS011;4336;49.310;8.646;2022-08-19T00:14:01;10.87;;;9.43;;
8596;SDS011;4336;49.310;8.646;2022-08-19T00:16:27;13.13;;;9.87;;
8596;SDS011;4336;49.310;8.646;2022-08-19T00:18:54;12.93;;;9.87;;
8596;SDS011;4336;49.310;8.646;2022-08-19T00:21:20;15.10;;;10.17;;
8596;SDS011;4336;49.310;8.646;2022-08-19T00:23:46;12.57;;;10.20;;
8596;SDS011;4336;49.310;8.646;2022-08-19T00:26:13;18.40;;;9.83;;
8596;SDS011;4336;49.310;8.646;2022-08-19T00:28:39;15.93;;;11.03;;
8596;SDS011;4336;49.310;8.646;2022-08-19T00:31:05;12.23;;;9.83;;
8596;SDS011;4336;49.310;8.646;2022-08-19T00:33:32;13.13;;;9.37;;
8596;SDS011;4336;49.310;8.646;2022-08-19T00:35:59;10.13;;;8.63;;
8596;SDS011;4336;49.310;8.646;2022-08-19T00:38:25;12.67;;;9.77;;
8596;SDS011;4336;49.310;8.646;2022-08-19T00:40:51;13.67;;;10.90;;
8596;SDS011;4336;49.310;8.646;2022-08-19T00:43:18;12.73;;;10.40;;
8596;SDS011;4336;49.310;8.646;2022-08-19T00:45:46;12.63;;;9.73;;
8596;SDS011;4336;49.310;8.646;2022-08-19T00:48:12;11.77;;;9.50;;
8596;SDS011;4336;49.310;8.646;2022-08-19T00:50:39;11.37;;;9.23;;
8596;SDS011;4336;49.310;8.646;2022-08-19T00:53:08;13.67;;;10.83;;
8596;SDS011;4336;49.310;8.646;2022-08-19T00:55:35;14.00;;;10.53;;
8596;SDS011;4336;49.310;8.646;2022-08-19T00:58:03;13.40;;;10.57;;
8596;SDS011;4336;49.310;8.646;2022-08-19T01:00:35;13.67;;;10.57;;
8596;SDS011;4336;49.310;8.646;2022-08-19T01:03:07;20.97;;;9.80;;
8596;SDS011;4336;49.310;8.646;2022-08-19T01:05:35;14.43;;;10.23;;
8596;SDS011;4336;49.310;8.646;2022-08-19T01:08:03;12.33;;;9.37;;
8596;SDS011;4336;49.310;8.646;2022-08-19T01:10:31;20.23;;;10.43;;
8596;SDS011;4336;49.310;8.646;2022-08-19T01:13:01;12.73;;;10.63;;
8596;SDS011;4336;49.310;8.646;2022-08-19T01:15:32;13.13;;;10.73;;
8596;SDS011;4336;49.310;8.646;2022-08-19T01:18:01;13.87;;;10.57;;
8596;SDS011;4336;49.310;8.646;2022-08-19T01:20:33;13.63;;;10.23;;
8596;SDS011;4336;49.310;8.646;2022-08-19T01:22:59;13.40;;;10.13;;
8596;SDS011;4336;49.310;8.646;2022-08-19T01:25:30;14.90;;;10.60;;
8596;SDS011;4336;49.310;8.646;2022-08-19T01:27:57;16.83;;;11.23;;
8596;SDS011;4336;49.310;8.646;2022-08-19T01:30:25;13.20;;;10.37;;
8596;SDS011;4336;49.310;8.646;2022-08-19T01:32:53;13.37;;;10.23;;
8596;SDS011;4336;49.310;8.646;2022-08-19T01:35:20;12.67;;;10.67;;
8596;SDS011;4336;49.310;8.646;2022-08-19T01:37:50;12.57;;;9.87;;
8596;SDS011;4336;49.310;8.646;2022-08-19T01:40:21;16.43;;;11.07;;
8596;SDS011;4336;49.310;8.646;2022-08-19T01:42:49;12.30;;;10.23;;
8596;SDS011;4336;49.310;8.646;2022-08-19T01:45:16;14.80;;;11.40;;
8596;SDS011;4336;49.310;8.646;2022-08-19T01:47:42;16.27;;;11.10;;
8596;SDS011;4336;49.310;8.646;2022-08-19T01:50:09;14.73;;;11.10;;
8596;SDS011;4336;49.310;8.646;2022-08-19T01:52:36;14.07;;;10.43;;
8596;SDS011;4336;49.310;8.646;2022-08-19T01:55:04;12.30;;;10.23;;
8596;SDS011;4336;49.310;8.646;2022-08-19T01:57:31;13.10;;;10.23;;
8596;SDS011;4336;49.310;8.646;2022-08-19T01:59:57;13.97;;;10.37;;
8596;SDS011;4336;49.310;8.646;2022-08-19T02:02:22;11.37;;;9.20;;
8596;SDS011;4336;49.310;8.646;2022-08-19T02:04:48;13.87;;;10.80;;
8596;SDS011;4336;49.310;8.646;2022-08-19T02:07:15;13.33;;;10.40;;
8596;SDS011;4336;49.310;8.646;2022-08-19T02:09:43;15.40;;;11.23;;
8596;SDS011;4336;49.310;8.646;2022-08-19T02:12:09;14.30;;;10.93;;
8596;SDS011;4336;49.310;8.646;2022-08-19T02:14:35;12.87;;;10.30;;
8596;SDS011;4336;49.310;8.646;2022-08-19T02:17:01;12.50;;;10.10;;
8596;SDS011;4336;49.310;8.646;2022-08-19T02:19:28;15.57;;;11.50;;
8596;SDS011;4336;49.310;8.646;2022-08-19T02:21:53;16.10;;;10.80;;
8596;SDS011;4336;49.310;8.646;2022-08-19T02:24:19;13.57;;;11.47;;
8596;SDS011;4336;49.310;8.646;2022-08-19T02:26:45;14.70;;;10.53;;
8596;SDS011;4336;49.310;8.646;2022-08-19T02:29:11;12.90;;;10.53;;
8596;SDS011;4336;49.310;8.646;2022-08-19T02:31:36;13.37;;;10.43;;
8596;SDS011;4336;49.310;8.646;2022-08-19T02:34:02;12.47;;;9.90;;
8596;SDS011;4336;49.310;8.646;2022-08-19T02:36:28;13.10;;;10.13;;
8596;SDS011;4336;49.310;8.646;2022-08-19T02:38:55;14.20;;;10.50;;
8596;SDS011;4336;49.310;8.646;2022-08-19T02:41:25;13.23;;;10.93;;
8596;SDS011;4336;49.310;8.646;2022-08-19T02:43:53;15.13;;;11.50;;
8596;SDS011;4336;49.310;8.646;2022-08-19T02:46:26;14.57;;;10.63;;
8596;SDS011;4336;49.310;8.646;2022-08-19T02:48:55;16.17;;;10.70;;
8596;SDS011;4336;49.310;8.646;2022-08-19T02:51:24;14.20;;;11.67;;
8596;SDS011;4336;49.310;8.646;2022-08-19T02:53:51;17.17;;;11.30;;
8596;SDS011;4336;49.310;8.646;2022-08-19T02:56:17;14.30;;;10.60;;
8596;SDS011;4336;49.310;8.646;2022-08-19T02:58:44;15.93;;;11.40;;
8596;SDS011;4336;49.310;8.646;2022-08-19T03:01:10;13.00;;;10.97;;
8596;SDS011;4336;49.310;8.646;2022-08-19T03:03:37;12.93;;;10.87;;
8596;SDS011;4336;49.310;8.646;2022-08-19T03:06:08;15.90;;;11.20;;
8596;SDS011;4336;49.310;8.646;2022-08-19T03:08:36;14.13;;;10.40;;
8596;SDS011;4336;49.310;8.646;2022-08-19T03:11:04;13.50;;;10.83;;
8596;SDS011;4336;49.310;8.646;2022-08-19T03:13:30;17.43;;;12.23;;
8596;SDS011;4336;49.310;8.646;2022-08-19T03:15:56;13.87;;;10.57;;
8596;SDS011;4336;49.310;8.646;2022-08-19T03:18:22;13.20;;;11.13;;
8596;SDS011;4336;49.310;8.646;2022-08-19T03:20:48;12.17;;;10.23;;
8596;SDS011;4336;49.310;8.646;2022-08-19T03:23:17;14.70;;;11.00;;
8596;SDS011;4336;49.310;8.646;2022-08-19T03:25:44;16.37;;;12.13;;
8596;SDS011;4336;49.310;8.646;2022-08-19T03:28:12;16.43;;;11.20;;
8596;SDS011;4336;49.310;8.646;2022-08-19T03:30:39;13.20;;;10.03;;
8596;SDS011;4336;49.310;8.646;2022-08-19T03:33:08;16.73;;;10.93;;
8596;SDS011;4336;49.310;8.646;2022-08-19T03:35:34;13.97;;;11.30;;
8596;SDS011;4336;49.310;8.646;2022-08-19T03:38:04;14.70;;;11.87;;
8596;SDS011;4336;49.310;8.646;2022-08-19T03:40:31;14.70;;;10.60;;
8596;SDS011;4336;49.310;8.646;2022-08-19T03:42:57;14.97;;;12.33;;
8596;SDS011;4336;49.310;8.646;2022-08-19T03:45:23;14.23;;;12.33;;
8596;SDS011;4336;49.310;8.646;2022-08-19T03:47:49;13.77;;;10.97;;
8596;SDS011;4336;49.310;8.646;2022-08-19T03:50:15;15.67;;;11.27;;
8596;SDS011;4336;49.310;8.646;2022-08-19T03:52:42;13.57;;;11.37;;
8596;SDS011;4336;49.310;8.646;2022-08-19T03:55:08;13.83;;;10.90;;
8596;SDS011;4336;49.310;8.646;2022-08-19T03:57:33;14.47;;;11.50;;
8596;SDS011;4336;49.310;8.646;2022-08-19T03:59:59;14.03;;;10.70;;
8596;SDS011;4336;49.310;8.646;2022-08-19T04:02:26;15.37;;;11.57;;
8596;SDS011;4336;49.310;8.646;2022-08-19T04:04:52;14.73;;;12.00;;
8596;SDS011;4336;49.310;8.646;2022-08-19T04:07:20;17.23;;;12.20;;
8596;SDS011;4336;49.310;8.646;2022-08-19T04:09:46;14.30;;;11.60;;
8596;SDS011;4336;49.310;8.646;2022-08-19T04:12:12;13.17;;;11.00;;
8596;SDS011;4336;49.310;8.646;2022-08-19T04:14:39;15.63;;;12.03;;
8596;SDS011;4336;49.310;8.646;2022-08-19T04:17:06;14.47;;;11.63;;
8596;SDS011;4336;49.310;8.646;2022-08-19T04:19:33;16.90;;;11.77;;
8596;SDS011;4336;49.310;8.646;2022-08-19T04:21:59;13.23;;;11.47;;
8596;SDS011;4336;49.310;8.646;2022-08-19T04:24:25;13.87;;;11.17;;
8596;SDS011;4336;49.310;8.646;2022-08-19T04:26:52;26.20;;;12.37;;
8596;SDS011;4336;49.310;8.646;2022-08-19T04:29:19;15.70;;;12.50;;
8596;SDS011;4336;49.310;8.646;2022-08-19T04:31:47;16.90;;;12.80;;
8596;SDS011;4336;49.310;8.646;2022-08-19T04:34:15;16.60;;;12.23;;
8596;SDS011;4336;49.310;8.646;2022-08-19T04:36:44;17.30;;;13.57;;
8596;SDS011;4336;49.310;8.646;2022-08-19T04:39:12;14.87;;;11.87;;
8596;SDS011;4336;49.310;8.646;2022-08-19T04:41:41;16.83;;;12.13;;
8596;SDS011;4336;49.310;8.646;2022-08-19T04:44:26;16.30;;;11.97;;
8596;SDS011;4336;49.310;8.646;2022-08-19T04:46:55;13.50;;;11.30;;
8596;SDS011;4336;49.310;8.646;2022-08-19T04:49:22;17.50;;;11.83;;
8596;SDS011;4336;49.310;8.646;2022-08-19T04:51:49;15.03;;;12.13;;
8596;SDS011;4336;49.310;8.646;2022-08-19T04:54:17;17.03;;;11.90;;
8596;SDS011;4336;49.310;8.646;2022-08-19T04:56:45;14.00;;;11.37;;
8596;SDS011;4336;49.310;8.646;2022-08-19T04:59:11;15.73;;;12.20;;
8596;SDS011;4336;49.310;8.646;2022-08-19T05:01:37;15.93;;;11.77;;
8596;SDS011;4336;49.310;8.646;2022-08-19T05:04:03;16.13;;;12.37;;
8596;SDS011;4336;49.310;8.646;2022-08-19T05:06:31;17.23;;;12.27;;
8596;SDS011;4336;49.310;8.646;2022-08-19T05:08:59;17.43;;;12.80;;
8596;SDS011;4336;49.310;8.646;2022-08-19T05:11:31;14.63;;;11.53;;
8596;SDS011;4336;49.310;8.646;2022-08-19T05:14:00;17.40;;;11.63;;
8596;SDS011;4336;49.310;8.646;2022-08-19T05:16:26;16.33;;;11.80;;
8596;SDS011;4336;49.310;8.646;2022-08-19T05:18:52;14.60;;;10.87;;
8596;SDS011;4336;49.310;8.646;2022-08-19T05:21:38;14.90;;;12.40;;
8596;SDS011;4336;49.310;8.646;2022-08-19T05:24:24;16.07;;;12.40;;
8596;SDS011;4336;49.310;8.646;2022-08-19T05:26:51;17.60;;;12.37;;
8596;SDS011;4336;49.310;8.646;2022-08-19T05:29:22;15.47;;;11.03;;
8596;SDS011;4336;49.310;8.646;2022-08-19T05:31:49;18.13;;;12.60;;
8596;SDS011;4336;49.310;8.646;2022-08-19T05:34:17;17.50;;;12.00;;
8596;SDS011;4336;49.310;8.646;2022-08-19T05:36:46;15.60;;;11.50;;
8596;SDS011;4336;49.310;8.646;2022-08-19T05:39:13;18.40;;;12.00;;
8596;SDS011;4336;49.310;8.646;2022-08-19T05:41:45;17.07;;;12.00;;
8596;SDS011;4336;49.310;8.646;2022-08-19T05:44:12;17.70;;;11.97;;
8596;SDS011;4336;49.310;8.646;2022-08-19T05:46:38;18.13;;;12.07;;
8596;SDS011;4336;49.310;8.646;2022-08-19T05:49:07;19.67;;;10.63;;
8596;SDS011;4336;49.310;8.646;2022-08-19T05:51:34;18.87;;;13.50;;
8596;SDS011;4336;49.310;8.646;2022-08-19T05:54:01;32.03;;;14.50;;
8596;SDS011;4336;49.310;8.646;2022-08-19T05:56:28;18.03;;;12.33;;
8596;SDS011;4336;49.310;8.646;2022-08-19T05:58:56;16.97;;;12.90;;
8596;SDS011;4336;49.310;8.646;2022-08-19T06:01:24;19.57;;;11.60;;
8596;SDS011;4336;49.310;8.646;2022-08-19T06:03:51;18.23;;;13.27;;
8596;SDS011;4336;49.310;8.646;2022-08-19T06:06:17;15.23;;;11.43;;
8596;SDS011;4336;49.310;8.646;2022-08-19T06:08:43;16.80;;;12.47;;
8596;SDS011;4336;49.310;8.646;2022-08-19T06:11:17;13.57;;;11.10;;
8596;SDS011;4336;49.310;8.646;2022-08-19T06:13:43;14.00;;;11.57;;
8596;SDS011;4336;49.310;8.646;2022-08-19T06:16:14;15.00;;;11.93;;
8596;SDS011;4336;49.310;8.646;2022-08-19T06:18:49;12.07;;;10.13;;
8596;SDS011;4336;49.310;8.646;2022-08-19T06:21:17;17.10;;;12.00;;
8596;SDS011;4336;49.310;8.646;2022-08-19T06:23:47;13.90;;;10.73;;
8596;SDS011;4336;49.310;8.646;2022-08-19T06:26:14;15.47;;;11.10;;
8596;SDS011;4336;49.310;8.646;2022-08-19T06:28:41;14.80;;;11.43;;
8596;SDS011;4336;49.310;8.646;2022-08-19T06:31:10;16.80;;;11.70;;
8596;SDS011;4336;49.310;8.646;2022-08-19T06:33:37;15.43;;;11.27;;
8596;SDS011;4336;49.310;8.646;2022-08-19T06:36:04;16.00;;;11.63;;
8596;SDS011;4336;49.310;8.646;2022-08-19T06:38:30;15.87;;;10.90;;
8596;SDS011;4336;49.310;8.646;2022-08-19T06:41:02;14.13;;;10.70;;
8596;SDS011;4336;49.310;8.646;2022-08-19T06:43:29;13.17;;;10.87;;
8596;SDS011;4336;49.310;8.646;2022-08-19T06:45:55;15.73;;;10.73;;
8596;SDS011;4336;49.310;8.646;2022-08-19T06:48:21;11.93;;;9.93;;
8596;SDS011;4336;49.310;8.646;2022-08-19T06:50:46;12.67;;;10.00;;
8596;SDS011;4336;49.310;8.646;2022-08-19T06:53:13;12.57;;;9.90;;
8596;SDS011;4336;49.310;8.646;2022-08-19T06:55:39;13.67;;;9.63;;
8596;SDS011;4336;49.310;8.646;2022-08-19T06:58:05;10.47;;;9.20;;
8596;SDS011;4336;49.310;8.646;2022-08-19T07:00:31;11.07;;;9.70;;
8596;SDS011;4336;49.310;8.646;2022-08-19T07:02:57;12.00;;;9.77;;
8596;SDS011;4336;49.310;8.646;2022-08-19T07:05:24;10.30;;;9.20;;
8596;SDS011;4336;49.310;8.646;2022-08-19T07:07:50;11.13;;;8.97;;
8596;SDS011;4336;49.310;8.646;2022-08-19T07:10:15;10.83;;;9.13;;
8596;SDS011;4336;49.310;8.646;2022-08-19T07:12:41;10.87;;;9.47;;
8596;SDS011;4336;49.310;8.646;2022-08-19T07:15:07;10.60;;;9.50;;
8596;SDS011;4336;49.310;8.646;2022-08-19T07:17:35;12.07;;;9.23;;
8596;SDS011;4336;49.310;8.646;2022-08-19T07:20:04;14.90;;;10.17;;
8596;SDS011;4336;49.310;8.646;2022-08-19T07:22:32;10.63;;;8.83;;
8596;SDS011;4336;49.310;8.646;2022-08-19T07:25:01;10.90;;;9.07;;
8596;SDS011;4336;49.310;8.646;2022-08-19T07:27:28;10.80;;;9.27;;
8596;SDS011;4336;49.310;8.646;2022-08-19T07:29:55;10.20;;;8.43;;
8596;SDS011;4336;49.310;8.646;2022-08-19T07:32:20;11.90;;;8.20;;
8596;SDS011;4336;49.310;8.646;2022-08-19T07:34:46;8.63;;;7.73;;
8596;SDS011;4336;49.310;8.646;2022-08-19T07:37:12;14.50;;;8.70;;
8596;SDS011;4336;49.310;8.646;2022-08-19T07:39:38;11.13;;;9.37;;
8596;SDS011;4336;49.310;8.646;2022-08-19T07:42:06;11.10;;;9.23;;
8596;SDS011;4336;49.310;8.646;2022-08-19T07:44:34;10.27;;;9.07;;
8596;SDS011;4336;49.310;8.646;2022-08-19T07:47:00;10.87;;;8.80;;
8596;SDS011;4336;49.310;8.646;2022-08-19T07:49:29;9.60;;;8.47;;
8596;SDS011;4336;49.310;8.646;2022-08-19T07:51:56;9.30;;;8.40;;
8596;SDS011;4336;49.310;8.646;2022-08-19T07:54:29;10.03;;;8.63;;
8596;SDS011;4336;49.310;8.646;2022-08-19T07:56:56;16.57;;;9.17;;
8596;SDS011;4336;49.310;8.646;2022-08-19T07:59:22;11.67;;;9.07;;
8596;SDS011;4336;49.310;8.646;2022-08-19T08:01:49;12.57;;;9.07;;
8596;SDS011;4336;49.310;8.646;2022-08-19T08:04:16;10.27;;;8.33;;
8596;SDS011;4336;49.310;8.646;2022-08-19T08:07:01;9.90;;;8.90;;
8596;SDS011;4336;49.310;8.646;2022-08-19T08:09:46;13.07;;;9.43;;
8596;SDS011;4336;49.310;8.646;2022-08-19T08:12:14;10.27;;;7.97;;
8596;SDS011;4336;49.310;8.646;2022-08-19T08:14:50;9.13;;;8.18;;
8596;SDS011;4336;49.310;8.646;2022-08-19T08:17:19;9.63;;;7.50;;
8596;SDS011;4336;49.310;8.646;2022-08-19T08:19:46;11.57;;;7.10;;
8596;SDS011;4336;49.310;8.646;2022-08-19T08:22:14;10.23;;;7.27;;
8596;SDS011;4336;49.310;8.646;2022-08-19T08:25:17;8.00;;;7.20;;
8596;SDS011;4336;49.310;8.646;2022-08-19T08:27:45;7.80;;;7.00;;
8596;SDS011;4336;49.310;8.646;2022-08-19T08:30:22;8.32;;;7.07;;
8596;SDS011;4336;49.310;8.646;2022-08-19T08:32:49;8.18;;;7.40;;
8596;SDS011;4336;49.310;8.646;2022-08-19T08:35:17;8.40;;;7.60;;
8596;SDS011;4336;49.310;8.646;2022-08-19T08:37:45;9.35;;;7.40;;
8596;SDS011;4336;49.310;8.646;2022-08-19T08:40:23;8.02;;;7.30;;
8596;SDS011;4336;49.310;8.646;2022-08-19T08:46:12;13.07;;;6.85;;
8596;SDS011;4336;49.310;8.646;2022-08-19T08:48:53;7.38;;;6.43;;
8596;SDS011;4336;49.310;8.646;2022-08-19T08:51:36;7.65;;;6.97;;
8596;SDS011;4336;49.310;8.646;2022-08-19T08:54:08;8.82;;;7.50;;
8596;SDS011;4336;49.310;8.646;2022-08-19T08:56:40;8.30;;;6.50;;
8596;SDS011;4336;49.310;8.646;2022-08-19T08:59:10;7.22;;;6.53;;
8596;SDS011;4336;49.310;8.646;2022-08-19T09:01:58;7.28;;;6.57;;
8596;SDS011;4336;49.310;8.646;2022-08-19T09:04:24;6.70;;;6.07;;
8596;SDS011;4336;49.310;8.646;2022-08-19T09:09:55;7.25;;;6.05;;
8596;SDS011;4336;49.310;8.646;2022-08-19T09:15:06;6.65;;;5.90;;
8596;SDS011;4336;49.310;8.646;2022-08-19T09:17:34;14.05;;;5.97;;
8596;SDS011;4336;49.310;8.646;2022-08-19T09:20:03;6.97;;;6.38;;
8596;SDS011;4336;49.310;8.646;2022-08-19T09:22:32;6.78;;;6.18;;
8596;SDS011;4336;49.310;8.646;2022-08-19T09:24:58;8.93;;;6.90;;
8596;SDS011;4336;49.310;8.646;2022-08-19T09:27:28;5.70;;;5.25;;
8596;SDS011;4336;49.310;8.646;2022-08-19T09:29:54;6.55;;;5.95;;
8596;SDS011;4336;49.310;8.646;2022-08-19T09:32:21;6.93;;;6.22;;
8596;SDS011;4336;49.310;8.646;2022-08-19T09:34:47;7.47;;;5.28;;
8596;SDS011;4336;49.310;8.646;2022-08-19T09:37:13;8.45;;;6.60;;
8596;SDS011;4336;49.310;8.646;2022-08-19T09:39:39;7.35;;;5.97;;
8596;SDS011;4336;49.310;8.646;2022-08-19T09:42:06;7.15;;;6.00;;
8596;SDS011;4336;49.310;8.646;2022-08-19T09:44:37;9.65;;;7.10;;
8596;SDS011;4336;49.310;8.646;2022-08-19T09:47:04;8.10;;;6.03;;
8596;SDS011;4336;49.310;8.646;2022-08-19T09:49:30;5.40;;;4.70;;
8596;SDS011;4336;49.310;8.646;2022-08-19T09:51:56;6.60;;;5.82;;
8596;SDS011;4336;49.310;8.646;2022-08-19T09:54:22;5.93;;;5.32;;
8596;SDS011;4336;49.310;8.646;2022-08-19T09:56:48;6.65;;;5.95;;
8596;SDS011;4336;49.310;8.646;2022-08-19T09:59:15;5.85;;;5.35;;
8596;SDS011;4336;49.310;8.646;2022-08-19T10:01:41;5.82;;;5.22;;
8596;SDS011;4336;49.310;8.646;2022-08-19T10:04:07;6.82;;;5.40;;
8596;SDS011;4336;49.310;8.646;2022-08-19T10:06:37;6.28;;;5.68;;
8596;SDS011;4336;49.310;8.646;2022-08-19T10:09:04;6.22;;;5.18;;
8596;SDS011;4336;49.310;8.646;2022-08-19T10:11:32;6.97;;;6.38;;
8596;SDS011;4336;49.310;8.646;2022-08-19T10:13:58;5.93;;;5.35;;
8596;SDS011;4336;49.310;8.646;2022-08-19T10:16:25;5.55;;;5.05;;
8596;SDS011;4336;49.310;8.646;2022-08-19T10:18:51;6.85;;;5.57;;
8596;SDS011;4336;49.310;8.646;2022-08-19T10:21:19;7.82;;;5.70;;
8596;SDS011;4336;49.310;8.646;2022-08-19T10:23:48;6.63;;;5.93;;
8596;SDS011;4336;49.310;8.646;2022-08-19T10:26:17;6.07;;;5.57;;
8596;SDS011;4336;49.310;8.646;2022-08-19T10:28:47;6.53;;;6.03;;
8596;SDS011;4336;49.310;8.646;2022-08-19T10:31:22;6.50;;;5.90;;
8596;SDS011;4336;49.310;8.646;2022-08-19T10:33:49;6.65;;;5.78;;
8596;SDS011;4336;49.310;8.646;2022-08-19T10:36:20;6.40;;;5.57;;
8596;SDS011;4336;49.310;8.646;2022-08-19T10:38:49;6.32;;;5.72;;
8596;SDS011;4336;49.310;8.646;2022-08-19T10:41:19;6.18;;;5.68;;
8596;SDS011;4336;49.310;8.646;2022-08-19T10:43:50;5.90;;;5.43;;
8596;SDS011;4336;49.310;8.646;2022-08-19T10:46:20;5.75;;;5.25;;
8596;SDS011;4336;49.310;8.646;2022-08-19T10:48:47;6.78;;;6.18;;
8596;SDS011;4336;49.310;8.646;2022-08-19T10:51:13;7.13;;;6.43;;
8596;SDS011;4336;49.310;8.646;2022-08-19T10:53:58;6.43;;;5.82;;
8596;SDS011;4336;49.310;8.646;2022-08-19T10:56:24;5.63;;;5.10;;
8596;SDS011;4336;49.310;8.646;2022-08-19T10:59:09;5.45;;;5.05;;
8596;SDS011;4336;49.310;8.646;2022-08-19T11:01:36;5.57;;;5.07;;
8596;SDS011;4336;49.310;8.646;2022-08-19T11:04:03;9.23;;;5.88;;
8596;SDS011;4336;49.310;8.646;2022-08-19T11:06:32;6.55;;;5.63;;
8596;SDS011;4336;49.310;8.646;2022-08-19T11:08:58;5.35;;;4.50;;
8596;SDS011;4336;49.310;8.646;2022-08-19T11:11:25;6.25;;;5.22;;
8596;SDS011;4336;49.310;8.646;2022-08-19T11:13:51;5.95;;;5.45;;
8596;SDS011;4336;49.310;8.646;2022-08-19T11:16:19;7.43;;;5.78;;
8596;SDS011;4336;49.310;8.646;2022-08-19T11:18:48;6.68;;;6.07;;
8596;SDS011;4336;49.310;8.646;2022-08-19T11:21:17;6.88;;;6.20;;
8596;SDS011;4336;49.310;8.646;2022-08-19T11:23:44;5.35;;;4.95;;
8596;SDS011;4336;49.310;8.646;2022-08-19T11:26:12;6.05;;;5.55;;
8596;SDS011;4336;49.310;8.646;2022-08-19T11:28:38;7.63;;;6.93;;
8596;SDS011;4336;49.310;8.646;2022-08-19T11:31:08;6.40;;;5.90;;
8596;SDS011;4336;49.310;8.646;2022-08-19T11:33:44;6.68;;;6.07;;
8596;SDS011;4336;49.310;8.646;2022-08-19T11:36:11;7.72;;;6.13;;
8596;SDS011;4336;49.310;8.646;2022-08-19T11:38:37;6.90;;;6.30;;
8596;SDS011;4336;49.310;8.646;2022-08-19T11:41:04;6.90;;;6.35;;
8596;SDS011;4336;49.310;8.646;2022-08-19T11:43:34;7.80;;;7.00;;
8596;SDS011;4336;49.310;8.646;2022-08-19T11:46:03;9.50;;;7.05;;
8596;SDS011;4336;49.310;8.646;2022-08-19T11:48:32;7.30;;;6.60;;
8596;SDS011;4336;49.310;8.646;2022-08-19T11:50:58;7.00;;;6.43;;
8596;SDS011;4336;49.310;8.646;2022-08-19T11:53:24;6.93;;;6.32;;
8596;SDS011;4336;49.310;8.646;2022-08-19T11:55:50;7.78;;;6.93;;
8596;SDS011;4336;49.310;8.646;2022-08-19T11:58:21;7.20;;;6.60;;
8596;SDS011;4336;49.310;8.646;2022-08-19T12:00:46;6.97;;;6.38;;
8596;SDS011;4336;49.310;8.646;2022-08-19T12:03:12;7.13;;;6.47;;
8596;SDS011;4336;49.310;8.646;2022-08-19T12:05:39;9.55;;;6.63;;
8596;SDS011;4336;49.310;8.646;2022-08-19T12:08:05;7.57;;;6.97;;
8596;SDS011;4336;49.310;8.646;2022-08-19T12:10:31;9.07;;;6.45;;
8596;SDS011;4336;49.310;8.646;2022-08-19T12:12:58;11.18;;;7.05;;
8596;SDS011;4336;49.310;8.646;2022-08-19T12:15:24;8.73;;;7.07;;
8596;SDS011;4336;49.310;8.646;2022-08-19T12:17:52;11.98;;;6.30;;
8596;SDS011;4336;49.310;8.646;2022-08-19T12:20:20;6.88;;;6.28;;
8596;SDS011;4336;49.310;8.646;2022-08-19T12:22:46;6.30;;;5.80;;
8596;SDS011;4336;49.310;8.646;2022-08-19T12:25:13;6.68;;;6.15;;
8596;SDS011;4336;49.310;8.646;2022-08-19T12:27:39;8.55;;;6.35;;
8596;SDS011;4336;49.310;8.646;2022-08-19T12:30:06;6.80;;;6.15;;
8596;SDS011;4336;49.310;8.646;2022-08-19T12:32:34;6.68;;;6.07;;
8596;SDS011;4336;49.310;8.646;2022-08-19T12:35:00;8.98;;;6.68;;
8596;SDS011;4336;49.310;8.646;2022-08-19T12:37:26;9.90;;;6.65;;
8596;SDS011;4336;49.310;8.646;2022-08-19T12:39:52;9.60;;;6.65;;
8596;SDS011;4336;49.310;8.646;2022-08-19T12:42:17;6.55;;;6.05;;
8596;SDS011;4336;49.310;8.646;2022-08-19T12:44:44;7.88;;;6.68;;
8596;SDS011;4336;49.310;8.646;2022-08-19T12:47:11;8.05;;;6.47;;
8596;SDS011;4336;49.310;8.646;2022-08-19T12:49:38;7.13;;;6.43;;
8596;SDS011;4336;49.310;8.646;2022-08-19T12:52:04;7.43;;;6.82;;
8596;SDS011;4336;49.310;8.646;2022-08-19T12:54:32;7.22;;;6.63;;
8596;SDS011;4336;49.310;8.646;2022-08-19T12:56:59;6.72;;;6.22;;
8596;SDS011;4336;49.310;8.646;2022-08-19T12:59:25;6.93;;;6.32;;
8596;SDS011;4336;49.310;8.646;2022-08-19T13:01:52;6.53;;;6.00;;
8596;SDS011;4336;49.310;8.646;2022-08-19T13:04:18;6.32;;;5.82;;
8596;SDS011;4336;49.310;8.646;2022-08-19T13:06:44;6.80;;;6.00;;
8596;SDS011;4336;49.310;8.646;2022-08-19T13:09:09;6.82;;;6.22;;
8596;SDS011;4336;49.310;8.646;2022-08-19T13:11:36;7.57;;;6.22;;
8596;SDS011;4336;49.310;8.646;2022-08-19T13:14:03;6.78;;;6.22;;
8596;SDS011;4336;49.310;8.646;2022-08-19T13:16:29;7.07;;;5.95;;
8596;SDS011;4336;49.310;8.646;2022-08-19T13:18:55;7.20;;;5.97;;
8596;SDS011;4336;49.310;8.646;2022-08-19T13:21:23;6.80;;;6.07;;
8596;SDS011;4336;49.310;8.646;2022-08-19T13:23:50;6.90;;;6.13;;
8596;SDS011;4336;49.310;8.646;2022-08-19T13:26:16;6.65;;;6.15;;
8596;SDS011;4336;49.310;8.646;2022-08-19T13:28:42;6.43;;;5.85;;
8596;SDS011;4336;49.310;8.646;2022-08-19T13:31:32;6.07;;;5.57;;
8596;SDS011;4336;49.310;8.646;2022-08-19T13:34:18;13.55;;;5.78;;
8596;SDS011;4336;49.310;8.646;2022-08-19T13:36:51;6.00;;;5.50;;
8596;SDS011;4336;49.310;8.646;2022-08-19T13:39:18;6.53;;;5.93;;
8596;SDS011;4336;49.310;8.646;2022-08-19T13:41:45;6.22;;;5.57;;
8596;SDS011;4336;49.310;8.646;2022-08-19T13:44:18;5.78;;;5.38;;
8596;SDS011;4336;49.310;8.646;2022-08-19T13:46:44;5.32;;;4.93;;
8596;SDS011;4336;49.310;8.646;2022-08-19T13:49:14;7.15;;;6.45;;
8596;SDS011;4336;49.310;8.646;2022-08-19T13:51:41;5.63;;;5.15;;
8596;SDS011;4336;49.310;8.646;2022-08-19T13:54:08;6.05;;;5.55;;
8596;SDS011;4336;49.310;8.646;2022-08-19T13:56:35;8.18;;;5.75;;
8596;SDS011;4336;49.310;8.646;2022-08-19T13:59:05;5.65;;;5.07;;
8596;SDS011;4336;49.310;8.646;2022-08-19T14:01:31;6.80;;;6.03;;
8596;SDS011;4336;49.310;8.646;2022-08-19T14:03:57;6.80;;;6.20;;
8596;SDS011;4336;49.310;8.646;2022-08-19T14:06:23;6.55;;;6.03;;
8596;SDS011;4336;49.310;8.646;2022-08-19T14:08:50;6.15;;;5.65;;
8596;SDS011;4336;49.310;8.646;2022-08-19T14:11:16;6.25;;;5.72;;
8596;SDS011;4336;49.310;8.646;2022-08-19T14:13:42;7.78;;;7.18;;
8596;SDS011;4336;49.310;8.646;2022-08-19T14:16:09;6.75;;;6.22;;
8596;SDS011;4336;49.310;8.646;2022-08-19T14:18:36;6.85;;;6.25;;
8596;SDS011;4336;49.310;8.646;2022-08-19T14:21:02;6.50;;;6.00;;
8596;SDS011;4336;49.310;8.646;2022-08-19T14:23:30;6.70;;;6.10;;
8596;SDS011;4336;49.310;8.646;2022-08-19T14:26:03;6.50;;;6.00;;
8596;SDS011;4336;49.310;8.646;2022-08-19T14:28:34;6.15;;;5.55;;
8596;SDS011;4336;49.310;8.646;2022-08-19T14:31:00;6.60;;;6.10;;
8596;SDS011;4336;49.310;8.646;2022-08-19T14:33:26;6.18;;;5.68;;
8596;SDS011;4336;49.310;8.646;2022-08-19T14:35:51;6.68;;;5.97;;
8596;SDS011;4336;49.310;8.646;2022-08-19T14:38:17;6.78;;;5.75;;
8596;SDS011;4336;49.310;8.646;2022-08-19T14:40:44;5.95;;;5.50;;
8596;SDS011;4336;49.310;8.646;2022-08-19T14:43:10;6.93;;;6.22;;
8596;SDS011;4336;49.310;8.646;2022-08-19T14:45:37;7.15;;;6.55;;
8596;SDS011;4336;49.310;8.646;2022-08-19T14:48:05;6.13;;;5.63;;
8596;SDS011;4336;49.310;8.646;2022-08-19T14:50:32;6.28;;;5.78;;
8596;SDS011;4336;49.310;8.646;2022-08-19T14:53:06;6.43;;;5.93;;
8596;SDS011;4336;49.310;8.646;2022-08-19T14:55:33;11.07;;;6.30;;
8596;SDS011;4336;49.310;8.646;2022-08-19T14:57:59;5.93;;;5.43;;
8596;SDS011;4336;49.310;8.646;2022-08-19T15:00:26;6.60;;;6.00;;
8596;SDS011;4336;49.310;8.646;2022-08-19T15:02:52;6.10;;;5.60;;
8596;SDS011;4336;49.310;8.646;2022-08-19T15:05:19;6.70;;;6.13;;
8596;SDS011;4336;49.310;8.646;2022-08-19T15:07:46;6.97;;;6.45;;
8596;SDS011;4336;49.310;8.646;2022-08-19T15:10:12;6.90;;;6.30;;
8596;SDS011;4336;49.310;8.646;2022-08-19T15:12:39;7.05;;;6.45;;
8596;SDS011;4336;49.310;8.646;2022-08-19T15:15:06;6.35;;;5.85;;
8596;SDS011;4336;49.310;8.646;2022-08-19T15:17:33;6.68;;;6.07;;